Time;durP1;ratioP1;P1;durP2;ratioP2;P2;SDS_P1;SDS_P2;PMS_P1;PMS_P2;Temp;Humidity;BMP_temperature;BMP_pressure;BME280_temperature;BME280_humidity;BME280_pressure;Samples;Min_cycle;Max_cycle;Signal;HPM_P1;HPM_P2
2023/03/11 00:01:50;;;;;;;;;;;2.00;89.50;;;;;;4996614;28;19913;-85
2023/03/11 00:04:15;;;;;;;;;;;1.90;89.60;;;;;;4995278;28;19921;-86
2023/03/11 00:06:41;;;;;;;;;;;1.90;89.90;;;;;;5001766;28;19921;-86
2023/03/11 00:09:06;;;;;;;;;;;2.00;90.00;;;;;;5011941;28;20046;-87
2023/03/11 00:11:32;;;;;;;;;;;2.00;89.70;;;;;;5015428;28;19975;-86
2023/03/11 00:13:57;;;;;;;;;;;2.00;89.80;;;;;;5004711;28;19920;-86
2023/03/11 00:16:23;;;;;;;;;;;2.10;89.40;;;;;;5010253;28;19913;-85
2023/03/11 00:18:49;;;;;;;;;;;2.00;89.90;;;;;;5014772;28;19914;-85
2023/03/11 00:21:16;;;;;;;;;;;2.10;89.30;;;;;;5013314;28;19914;-86
2023/03/11 00:23:41;;;;;;;;;;;2.00;89.30;;;;;;4993982;28;20247;-85
2023/03/11 00:26:06;;;;;;;;;;;2.00;89.30;;;;;;5011794;28;19921;-86
2023/03/11 00:28:32;;;;;;;;;;;2.10;89.30;;;;;;5022312;28;20406;-86
2023/03/11 00:30:57;;;;;;;;;;;2.00;89.20;;;;;;5019864;28;19914;-86
2023/03/11 00:33:23;;;;;;;;;;;2.00;89.00;;;;;;5013676;28;19913;-85
2023/03/11 00:35:49;;;;;;;;;;;1.90;89.00;;;;;;5013450;28;19913;-85
2023/03/11 00:38:15;;;;;;;;;;;1.90;88.20;;;;;;5020827;28;20055;-85
2023/03/11 00:40:41;;;;;;;;;;;2.00;88.40;;;;;;5021392;28;19914;-87
2023/03/11 00:43:07;;;;;;;;;;;1.90;88.20;;;;;;5018457;28;19922;-85
2023/03/11 00:45:32;;;;;;;;;;;1.90;89.10;;;;;;5040415;28;19975;-86
2023/03/11 00:47:58;;;;;;;;;;;2.00;88.70;;;;;;5015495;28;19920;-87
2023/03/11 00:50:25;;;;;;;;;;;2.00;88.70;;;;;;5012036;28;20009;-86
2023/03/11 00:52:50;;;;;;;;;;;2.00;88.60;;;;;;5020828;28;19917;-87
2023/03/11 00:55:18;;;;;;;;;;;1.90;88.60;;;;;;5017058;28;19917;-87
2023/03/11 00:57:44;;;;;;;;;;;1.90;88.90;;;;;;5015635;28;20405;-86
2023/03/11 01:00:13;;;;;;;;;;;1.90;88.80;;;;;;5019025;28;19913;-85
2023/03/11 01:02:39;;;;;;;;;;;1.90;88.70;;;;;;5021787;28;20371;-86
2023/03/11 01:05:05;;;;;;;;;;;1.90;88.60;;;;;;5011930;28;19921;-86
2023/03/11 01:07:32;;;;;;;;;;;1.80;88.50;;;;;;5004990;28;19913;-86
2023/03/11 01:09:57;;;;;;;;;;;1.80;88.60;;;;;;5023385;28;19966;-86
2023/03/11 01:12:23;;;;;;;;;;;1.80;89.20;;;;;;5019983;28;20011;-86
2023/03/11 01:14:48;;;;;;;;;;;2.00;89.20;;;;;;5009988;28;19921;-87
2023/03/11 01:17:14;;;;;;;;;;;2.00;88.80;;;;;;5012749;28;19957;-88
2023/03/11 01:19:39;;;;;;;;;;;2.00;88.00;;;;;;5010642;28;19921;-88
2023/03/11 01:22:05;;;;;;;;;;;1.90;88.30;;;;;;4998890;28;20145;-87
2023/03/11 01:24:30;;;;;;;;;;;1.80;88.10;;;;;;5005206;28;20302;-87
2023/03/11 01:26:55;;;;;;;;;;;1.90;88.20;;;;;;5009944;28;19959;-86
2023/03/11 01:29:21;;;;;;;;;;;2.00;88.50;;;;;;5017479;28;19913;-87
2023/03/11 01:31:46;;;;;;;;;;;2.00;88.20;;;;;;5011707;28;19913;-87
2023/03/11 01:34:12;;;;;;;;;;;2.10;88.00;;;;;;4996748;28;19964;-85
2023/03/11 01:36:37;;;;;;;;;;;2.00;88.00;;;;;;5018500;28;19913;-87
2023/03/11 01:39:03;;;;;;;;;;;2.00;87.80;;;;;;5009248;28;19913;-87
2023/03/11 01:41:28;;;;;;;;;;;2.10;88.20;;;;;;5022894;28;19914;-87
2023/03/11 01:43:54;;;;;;;;;;;2.10;88.00;;;;;;5018461;28;19924;-87
2023/03/11 01:46:22;;;;;;;;;;;2.00;87.70;;;;;;4998360;28;19932;-88
2023/03/11 01:48:51;;;;;;;;;;;2.00;87.90;;;;;;5005064;28;19914;-87
2023/03/11 01:51:18;;;;;;;;;;;2.00;87.70;;;;;;4993410;28;19975;-87
2023/03/11 01:53:44;;;;;;;;;;;2.00;87.30;;;;;;5015682;28;19925;-87
2023/03/11 01:56:10;;;;;;;;;;;2.00;87.50;;;;;;5025558;28;19918;-88
2023/03/11 01:58:38;;;;;;;;;;;2.00;88.40;;;;;;5022784;28;19917;-87
2023/03/11 02:01:04;;;;;;;;;;;2.00;88.50;;;;;;5015511;28;20379;-87
2023/03/11 02:03:31;;;;;;;;;;;2.00;88.60;;;;;;5024686;28;20640;-88
2023/03/11 02:05:59;;;;;;;;;;;2.00;88.30;;;;;;5009749;28;19976;-87
2023/03/11 02:08:24;;;;;;;;;;;2.10;88.00;;;;;;5014979;28;19913;-87
2023/03/11 02:10:51;;;;;;;;;;;2.00;88.50;;;;;;5033950;28;19913;-87
2023/03/11 02:13:17;;;;;;;;;;;2.00;88.40;;;;;;5022535;28;19928;-87
2023/03/11 02:15:43;;;;;;;;;;;2.00;88.80;;;;;;5014741;28;19921;-87
2023/03/11 02:18:11;;;;;;;;;;;2.10;89.00;;;;;;5020614;28;19913;-86
2023/03/11 02:20:42;;;;;;;;;;;1.90;88.40;;;;;;5014452;28;19913;-87
2023/03/11 02:23:08;;;;;;;;;;;2.00;88.80;;;;;;5022887;28;19913;-87
2023/03/11 02:25:38;;;;;;;;;;;2.10;88.70;;;;;;5021216;28;20019;-87
2023/03/11 02:28:06;;;;;;;;;;;1.90;88.80;;;;;;5024015;28;19918;-88
2023/03/11 02:30:32;;;;;;;;;;;2.00;88.30;;;;;;5021352;28;20166;-87
2023/03/11 02:32:58;;;;;;;;;;;2.00;88.40;;;;;;5016478;28;19914;-87
2023/03/11 02:35:23;;;;;;;;;;;2.00;88.50;;;;;;5019007;28;19913;-86
2023/03/11 02:37:50;;;;;;;;;;;1.90;88.50;;;;;;5014343;28;19917;-88
2023/03/11 02:40:22;;;;;;;;;;;1.90;88.10;;;;;;5001866;28;19983;-88
2023/03/11 02:42:52;;;;;;;;;;;1.90;88.10;;;;;;5021191;28;19913;-87
2023/03/11 02:45:19;;;;;;;;;;;1.80;88.60;;;;;;5026668;28;19922;-87
2023/03/11 02:47:45;;;;;;;;;;;1.80;88.30;;;;;;5030046;28;19969;-85
2023/03/11 02:50:12;;;;;;;;;;;1.80;89.00;;;;;;5026379;28;20320;-88
2023/03/11 02:52:38;;;;;;;;;;;1.80;89.10;;;;;;4997075;28;19917;-88
2023/03/11 02:55:04;;;;;;;;;;;1.80;88.80;;;;;;5001313;28;19913;-88
2023/03/11 02:57:29;;;;;;;;;;;1.80;89.10;;;;;;5020136;28;19914;-88
2023/03/11 02:59:54;;;;;;;;;;;1.70;88.40;;;;;;4988674;28;19949;-88
2023/03/11 03:02:20;;;;;;;;;;;1.80;88.40;;;;;;5015753;28;19968;-88
2023/03/11 03:04:45;;;;;;;;;;;1.80;88.10;;;;;;5010417;28;20365;-87
2023/03/11 03:07:11;;;;;;;;;;;1.80;88.50;;;;;;5030306;28;19909;-88
2023/03/11 03:09:36;;;;;;;;;;;1.80;88.50;;;;;;5012407;28;19920;-87
2023/03/11 03:12:03;;;;;;;;;;;1.80;88.10;;;;;;5024352;28;20386;-87
2023/03/11 03:14:28;;;;;;;;;;;1.80;88.40;;;;;;5016940;28;20341;-87
2023/03/11 03:16:54;;;;;;;;;;;1.80;88.40;;;;;;5001867;28;19913;-88
2023/03/11 03:19:19;;;;;;;;;;;1.80;88.60;;;;;;4996130;28;19966;-88
2023/03/11 03:21:45;;;;;;;;;;;1.80;88.60;;;;;;5016336;28;19913;-88
2023/03/11 03:24:11;;;;;;;;;;;1.90;88.70;;;;;;5027692;28;19925;-88
2023/03/11 03:26:36;;;;;;;;;;;1.80;88.90;;;;;;5027027;28;19979;-87
2023/03/11 03:29:02;;;;;;;;;;;1.90;89.20;;;;;;5020351;28;20287;-87
2023/03/11 03:31:28;;;;;;;;;;;1.90;88.90;;;;;;5013840;28;19926;-88
2023/03/11 03:33:53;;;;;;;;;;;1.90;89.00;;;;;;5014192;28;19928;-87
2023/03/11 03:36:18;;;;;;;;;;;1.90;88.60;;;;;;5002729;28;20359;-87
2023/03/11 03:38:44;;;;;;;;;;;1.80;88.40;;;;;;5028990;28;19913;-88
2023/03/11 03:41:12;;;;;;;;;;;1.80;88.60;;;;;;4995771;28;19964;-88
2023/03/11 03:43:37;;;;;;;;;;;1.80;88.80;;;;;;5012708;28;19914;-88
2023/03/11 03:46:03;;;;;;;;;;;1.80;89.30;;;;;;5001129;28;19914;-87
2023/03/11 03:48:29;;;;;;;;;;;1.80;89.30;;;;;;5005588;28;19949;-88
2023/03/11 03:50:54;;;;;;;;;;;1.90;88.90;;;;;;5000665;28;19960;-88
2023/03/11 03:53:20;;;;;;;;;;;1.90;88.60;;;;;;5021410;28;20409;-88
2023/03/11 03:55:45;;;;;;;;;;;1.80;88.70;;;;;;5012187;28;19913;-87
2023/03/11 03:58:11;;;;;;;;;;;1.90;88.30;;;;;;5013076;28;19918;-87
2023/03/11 04:00:36;;;;;;;;;;;1.90;88.30;;;;;;5012802;28;19914;-88
2023/03/11 04:03:02;;;;;;;;;;;1.90;88.70;;;;;;5012386;28;19956;-88
2023/03/11 04:05:27;;;;;;;;;;;2.00;88.30;;;;;;5003712;28;19978;-87
2023/03/11 04:07:53;;;;;;;;;;;2.00;88.30;;;;;;5012028;28;19920;-87
2023/03/11 04:10:19;;;;;;;;;;;2.00;88.30;;;;;;5010429;28;19910;-88
2023/03/11 04:12:44;;;;;;;;;;;1.90;88.50;;;;;;5003062;28;19936;-88
2023/03/11 04:15:09;;;;;;;;;;;1.90;88.30;;;;;;5001306;28;19909;-88
2023/03/11 04:17:35;;;;;;;;;;;1.90;88.10;;;;;;5000950;28;19968;-88
2023/03/11 04:20:01;;;;;;;;;;;1.90;88.40;;;;;;5012666;28;19977;-88
2023/03/11 04:22:26;;;;;;;;;;;1.90;88.50;;;;;;5020067;28;19964;-87
2023/03/11 04:24:51;;;;;;;;;;;1.80;88.40;;;;;;5004785;28;19922;-88
2023/03/11 04:27:17;;;;;;;;;;;1.90;88.60;;;;;;5011656;28;19910;-88
2023/03/11 04:29:42;;;;;;;;;;;1.80;88.50;;;;;;5010483;28;19963;-88
2023/03/11 04:32:08;;;;;;;;;;;1.80;88.20;;;;;;5011056;28;19910;-88
2023/03/11 04:34:33;;;;;;;;;;;1.90;88.40;;;;;;5018773;28;19913;-89
2023/03/11 04:36:59;;;;;;;;;;;1.90;88.40;;;;;;5027174;28;19915;-87
2023/03/11 04:39:24;;;;;;;;;;;1.90;88.40;;;;;;4991939;28;19967;-88
2023/03/11 04:41:50;;;;;;;;;;;1.90;88.10;;;;;;5026612;28;19909;-88
2023/03/11 04:44:15;;;;;;;;;;;1.90;88.20;;;;;;5010686;28;20014;-88
2023/03/11 04:46:41;;;;;;;;;;;1.80;88.10;;;;;;5011061;28;19909;-88
2023/03/11 04:49:07;;;;;;;;;;;1.80;88.10;;;;;;5026450;28;19967;-88
2023/03/11 04:51:32;;;;;;;;;;;1.90;88.00;;;;;;5027009;28;19920;-88
2023/03/11 04:53:57;;;;;;;;;;;1.80;87.80;;;;;;5001105;28;19913;-88
2023/03/11 04:56:23;;;;;;;;;;;1.90;88.30;;;;;;5016127;28;19916;-88
2023/03/11 04:58:48;;;;;;;;;;;1.90;87.90;;;;;;5004063;28;19913;-88
2023/03/11 05:01:14;;;;;;;;;;;1.90;88.00;;;;;;4996701;28;19918;-86
2023/03/11 05:03:39;;;;;;;;;;;1.80;87.70;;;;;;5017809;28;19909;-87
2023/03/11 05:06:05;;;;;;;;;;;1.80;87.40;;;;;;5023826;28;19917;-88
2023/03/11 05:08:30;;;;;;;;;;;1.80;87.50;;;;;;5033254;28;19935;-87
2023/03/11 05:10:55;;;;;;;;;;;1.80;87.60;;;;;;5025828;28;19913;-86
2023/03/11 05:13:21;;;;;;;;;;;1.80;87.70;;;;;;5024835;28;19915;-87
2023/03/11 05:15:47;;;;;;;;;;;1.90;88.20;;;;;;5018595;28;19967;-87
2023/03/11 05:18:13;;;;;;;;;;;1.90;88.20;;;;;;4993988;28;19966;-86
2023/03/11 05:20:38;;;;;;;;;;;1.90;88.20;;;;;;5010178;28;19944;-87
2023/03/11 05:23:04;;;;;;;;;;;1.90;88.30;;;;;;5018093;28;19952;-88
2023/03/11 05:25:29;;;;;;;;;;;1.80;87.80;;;;;;5006171;28;20464;-87
2023/03/11 05:27:55;;;;;;;;;;;1.80;87.70;;;;;;5011572;28;19997;-87
2023/03/11 05:30:20;;;;;;;;;;;1.80;88.10;;;;;;5003660;28;20051;-87
2023/03/11 05:32:46;;;;;;;;;;;1.80;88.10;;;;;;5006327;28;19914;-87
2023/03/11 05:35:12;;;;;;;;;;;1.60;87.30;;;;;;5011482;28;19918;-88
2023/03/11 05:37:38;;;;;;;;;;;1.60;87.50;;;;;;5008723;28;19999;-87
2023/03/11 05:40:05;;;;;;;;;;;1.60;87.50;;;;;;5011420;28;19949;-87
2023/03/11 05:42:31;;;;;;;;;;;1.60;87.30;;;;;;5011120;28;19921;-87
2023/03/11 05:44:57;;;;;;;;;;;1.70;87.90;;;;;;5010966;28;20007;-89
2023/03/11 05:47:22;;;;;;;;;;;1.70;87.00;;;;;;5001998;28;19953;-87
2023/03/11 05:49:48;;;;;;;;;;;1.80;86.50;;;;;;5025754;28;19944;-89
2023/03/11 05:52:14;;;;;;;;;;;1.70;87.30;;;;;;5004066;23;20418;-82
2023/03/11 05:54:39;;;;;;;;;;;1.70;87.00;;;;;;5023363;28;19969;-82
2023/03/11 05:57:04;;;;;;;;;;;1.70;86.60;;;;;;5008068;28;19993;-85
2023/03/11 05:59:31;;;;;;;;;;;1.70;86.60;;;;;;5011664;28;19977;-84
2023/03/11 06:01:57;;;;;;;;;;;1.70;87.60;;;;;;5007006;28;19927;-83
2023/03/11 06:04:22;;;;;;;;;;;1.70;87.50;;;;;;5016687;28;19922;-81
2023/03/11 06:06:47;;;;;;;;;;;1.70;87.10;;;;;;5014482;28;19913;-82
2023/03/11 06:09:13;;;;;;;;;;;1.60;87.20;;;;;;5016355;28;19993;-82
2023/03/11 06:11:38;;;;;;;;;;;1.70;87.60;;;;;;5007522;28;20306;-83
2023/03/11 06:14:04;;;;;;;;;;;1.80;86.70;;;;;;5015751;28;20003;-81
2023/03/11 06:16:29;;;;;;;;;;;1.70;86.80;;;;;;5010863;28;19921;-83
2023/03/11 06:18:55;;;;;;;;;;;1.60;87.00;;;;;;5013415;28;19914;-80
2023/03/11 06:21:21;;;;;;;;;;;1.60;87.10;;;;;;5011210;28;19917;-84
2023/03/11 06:23:47;;;;;;;;;;;1.70;87.30;;;;;;5015494;28;20390;-85
2023/03/11 06:26:14;;;;;;;;;;;1.70;87.30;;;;;;5003325;28;19913;-83
2023/03/11 06:28:40;;;;;;;;;;;1.70;87.40;;;;;;5028992;28;19920;-82
2023/03/11 06:31:10;;;;;;;;;;;1.70;87.60;;;;;;5006339;28;19917;-82
2023/03/11 06:33:35;;;;;;;;;;;1.60;87.20;;;;;;5019082;28;19936;-83
2023/03/11 06:36:01;;;;;;;;;;;1.70;86.90;;;;;;5026975;28;19925;-83
2023/03/11 06:38:27;;;;;;;;;;;1.70;87.10;;;;;;5014199;28;19921;-85
2023/03/11 06:40:53;;;;;;;;;;;1.60;87.40;;;;;;4991197;28;19925;-80
2023/03/11 06:43:20;;;;;;;;;;;1.60;87.50;;;;;;5009159;28;19947;-84
2023/03/11 06:45:46;;;;;;;;;;;1.60;86.10;;;;;;5011568;28;19922;-87
2023/03/11 06:48:11;;;;;;;;;;;1.50;86.80;;;;;;5008137;28;19920;-85
2023/03/11 06:50:37;;;;;;;;;;;1.50;86.80;;;;;;5009402;28;19913;-84
2023/03/11 06:53:05;;;;;;;;;;;1.50;85.90;;;;;;5007157;28;19960;-83
2023/03/11 06:55:31;;;;;;;;;;;1.50;85.50;;;;;;4999166;28;20007;-83
2023/03/11 06:57:56;;;;;;;;;;;1.50;85.70;;;;;;5002678;28;20004;-84
2023/03/11 07:00:24;;;;;;;;;;;1.60;85.60;;;;;;5001622;28;19945;-83
2023/03/11 07:02:49;;;;;;;;;;;1.50;85.50;;;;;;5018528;28;19913;-83
2023/03/11 07:05:15;;;;;;;;;;;1.60;85.50;;;;;;5017814;28;19925;-83
2023/03/11 07:07:41;;;;;;;;;;;1.60;85.60;;;;;;5010415;28;19918;-84
2023/03/11 07:10:07;;;;;;;;;;;1.50;85.20;;;;;;5031466;28;19989;-84
2023/03/11 07:12:32;;;;;;;;;;;1.40;85.60;;;;;;5017085;28;19931;-84
2023/03/11 07:14:58;;;;;;;;;;;1.50;86.40;;;;;;5016756;28;19913;-83
2023/03/11 07:17:24;;;;;;;;;;;1.50;85.90;;;;;;5016512;28;20348;-84
2023/03/11 07:19:50;;;;;;;;;;;1.50;86.50;;;;;;5017507;28;19917;-84
2023/03/11 07:22:16;;;;;;;;;;;1.50;86.20;;;;;;5031849;28;21273;-83
2023/03/11 07:24:44;;;;;;;;;;;1.50;86.00;;;;;;5015755;28;19914;-83
2023/03/11 07:27:10;;;;;;;;;;;1.40;85.50;;;;;;5019390;28;19910;-83
2023/03/11 07:29:35;;;;;;;;;;;1.50;86.10;;;;;;5024569;28;19924;-84
2023/03/11 07:32:01;;;;;;;;;;;1.50;85.50;;;;;;5019400;28;19924;-84
2023/03/11 07:34:26;;;;;;;;;;;1.60;85.30;;;;;;5013268;28;19987;-83
2023/03/11 07:36:52;;;;;;;;;;;1.60;85.60;;;;;;5012452;28;20367;-83
2023/03/11 07:39:17;;;;;;;;;;;1.60;85.90;;;;;;5004855;28;19955;-83
2023/03/11 07:41:43;;;;;;;;;;;1.70;84.90;;;;;;5013365;28;19917;-83
2023/03/11 07:44:10;;;;;;;;;;;1.80;84.10;;;;;;5012989;28;19913;-83
2023/03/11 07:46:36;;;;;;;;;;;1.80;84.70;;;;;;5013382;28;19914;-83
2023/03/11 07:49:02;;;;;;;;;;;1.80;84.90;;;;;;5015465;28;19972;-83
2023/03/11 07:51:29;;;;;;;;;;;1.90;84.40;;;;;;5012939;28;20000;-83
2023/03/11 07:53:55;;;;;;;;;;;1.90;83.70;;;;;;5013128;28;19917;-83
2023/03/11 07:56:22;;;;;;;;;;;2.00;83.50;;;;;;5015486;28;19910;-84
2023/03/11 07:58:57;;;;;;;;;;;2.10;83.30;;;;;;5016542;28;20262;-84
2023/03/11 08:01:24;;;;;;;;;;;2.10;83.10;;;;;;5019658;28;20005;-84
2023/03/11 08:03:55;;;;;;;;;;;2.10;82.90;;;;;;5014652;28;20275;-83
2023/03/11 08:06:31;;;;;;;;;;;2.10;83.20;;;;;;5032456;28;19917;-83
2023/03/11 08:08:57;;;;;;;;;;;2.20;82.70;;;;;;5019366;28;20299;-84
2023/03/11 08:11:25;;;;;;;;;;;2.20;82.90;;;;;;5026422;28;20374;-84
2023/03/11 08:13:52;;;;;;;;;;;2.10;81.30;;;;;;5017276;28;19909;-84
2023/03/11 08:16:19;;;;;;;;;;;2.10;81.80;;;;;;5017771;28;19909;-84
2023/03/11 08:18:45;;;;;;;;;;;2.20;81.10;;;;;;5015602;28;19935;-84
2023/03/11 08:21:11;;;;;;;;;;;2.20;81.00;;;;;;5004745;28;20416;-84
2023/03/11 08:23:37;;;;;;;;;;;2.30;80.40;;;;;;5027746;28;19913;-84
2023/03/11 08:26:13;;;;;;;;;;;2.30;81.70;;;;;;5003997;28;19910;-84
2023/03/11 08:28:39;;;;;;;;;;;2.20;80.50;;;;;;5014580;28;19913;-84
2023/03/11 08:31:15;;;;;;;;;;;2.30;81.30;;;;;;5016078;28;20025;-84
2023/03/11 08:33:41;;;;;;;;;;;2.40;79.90;;;;;;5012920;28;20012;-83
2023/03/11 08:36:07;;;;;;;;;;;2.30;80.40;;;;;;5012728;28;19913;-84
2023/03/11 08:38:32;;;;;;;;;;;2.40;81.90;;;;;;5011940;28;19917;-84
2023/03/11 08:40:58;;;;;;;;;;;2.40;80.10;;;;;;5012842;28;20434;-84
2023/03/11 08:43:23;;;;;;;;;;;2.50;81.10;;;;;;5011913;28;20359;-84
2023/03/11 08:45:49;;;;;;;;;;;2.60;79.20;;;;;;5013123;28;19914;-84
2023/03/11 08:48:14;;;;;;;;;;;2.70;79.60;;;;;;5012639;28;20103;-84
2023/03/11 08:50:40;;;;;;;;;;;2.60;79.90;;;;;;5012773;28;19924;-84
2023/03/11 08:53:07;;;;;;;;;;;2.70;78.10;;;;;;5015762;28;19983;-84
2023/03/11 08:55:33;;;;;;;;;;;2.70;76.40;;;;;;5013401;28;19909;-84
2023/03/11 08:58:01;;;;;;;;;;;2.70;77.10;;;;;;5012897;28;20001;-84
2023/03/11 09:00:27;;;;;;;;;;;2.80;78.80;;;;;;5009214;28;19913;-84
2023/03/11 09:02:52;;;;;;;;;;;3.00;76.10;;;;;;5009379;28;19940;-84
2023/03/11 09:05:18;;;;;;;;;;;2.90;72.60;;;;;;5012947;28;19913;-83
2023/03/11 09:07:44;;;;;;;;;;;2.90;74.60;;;;;;5012593;28;19913;-84
2023/03/11 09:10:12;;;;;;;;;;;2.90;73.70;;;;;;5013718;28;20084;-84
2023/03/11 09:12:37;;;;;;;;;;;2.90;73.80;;;;;;5014047;28;19932;-84
2023/03/11 09:15:04;;;;;;;;;;;3.00;72.30;;;;;;5008074;28;20332;-84
2023/03/11 09:17:30;;;;;;;;;;;3.10;73.40;;;;;;4997648;28;19921;-83
2023/03/11 09:19:55;;;;;;;;;;;3.00;70.80;;;;;;5013533;28;19958;-83
2023/03/11 09:22:21;;;;;;;;;;;3.10;71.00;;;;;;5029052;28;20287;-83
2023/03/11 09:24:47;;;;;;;;;;;3.00;69.00;;;;;;5012551;28;19920;-84
2023/03/11 09:27:14;;;;;;;;;;;3.00;68.90;;;;;;5013293;28;19921;-84
2023/03/11 09:29:40;;;;;;;;;;;3.20;66.00;;;;;;5017650;28;19914;-84
2023/03/11 09:32:05;;;;;;;;;;;3.20;68.40;;;;;;5031792;28;19997;-84
2023/03/11 09:34:31;;;;;;;;;;;3.30;66.40;;;;;;5019112;28;19996;-84
2023/03/11 09:36:57;;;;;;;;;;;3.30;64.80;;;;;;5027584;28;20023;-84
2023/03/11 09:39:22;;;;;;;;;;;3.40;64.20;;;;;;5018474;28;19910;-84
2023/03/11 09:41:51;;;;;;;;;;;3.50;61.20;;;;;;5018088;28;19998;-84
2023/03/11 09:44:27;;;;;;;;;;;3.30;63.20;;;;;;5016828;28;20375;-83
2023/03/11 09:47:03;;;;;;;;;;;3.40;62.30;;;;;;5023013;28;20378;-84
2023/03/11 09:49:47;;;;;;;;;;;3.30;62.90;;;;;;4997313;28;20267;-84
2023/03/11 09:52:14;;;;;;;;;;;3.40;65.00;;;;;;4998440;28;20363;-84
2023/03/11 09:54:41;;;;;;;;;;;3.50;61.80;;;;;;5001024;28;20359;-84
2023/03/11 09:57:11;;;;;;;;;;;3.70;62.30;;;;;;4999051;28;19977;-84
2023/03/11 09:59:38;;;;;;;;;;;3.80;64.00;;;;;;4997863;28;20411;-84
2023/03/11 10:02:04;;;;;;;;;;;3.90;60.90;;;;;;5006842;28;19921;-84
2023/03/11 10:04:38;;;;;;;;;;;3.80;61.40;;;;;;5012311;28;19914;-83
2023/03/11 10:07:09;;;;;;;;;;;3.80;61.50;;;;;;5025399;28;19995;-84
2023/03/11 10:09:56;;;;;;;;;;;3.70;61.80;;;;;;5014794;28;19967;-84
2023/03/11 10:12:32;;;;;;;;;;;3.60;62.30;;;;;;5014782;28;19909;-84
2023/03/11 10:15:00;;;;;;;;;;;3.60;64.00;;;;;;5013894;28;19910;-84
2023/03/11 10:18:03;;;;;;;;;;;3.70;65.90;;;;;;5014235;28;19913;-84
2023/03/11 10:20:58;;;;;;;;;;;3.80;63.90;;;;;;5006495;28;20367;-83
2023/03/11 10:23:26;;;;;;;;;;;4.00;61.80;;;;;;5001814;28;19910;-84
2023/03/11 10:26:48;;;;;;;;;;;4.30;61.10;;;;;;4994821;28;19922;-84
2023/03/11 10:29:35;;;;;;;;;;;;;;;;;;;;;
2023/03/11 10:32:41;;;;;;;;;;;4.50;63.40;;;;;;4995851;28;20015;-83
2023/03/11 10:35:18;;;;;;;;;;;4.60;60.60;;;;;;4988881;28;19917;-84
2023/03/11 10:37:55;;;;;;;;;;;4.60;61.70;;;;;;5008787;28;20019;-82
2023/03/11 10:40:24;;;;;;;;;;;4.50;65.20;;;;;;5010782;28;19936;-81
2023/03/11 10:42:51;;;;;;;;;;;4.50;65.20;;;;;;5003352;28;19996;-82
2023/03/11 10:45:18;;;;;;;;;;;4.60;62.60;;;;;;5012394;28;19925;-80
2023/03/11 10:47:44;;;;;;;;;;;4.80;61.10;;;;;;5025990;28;19928;-82
2023/03/11 10:50:14;;;;;;;;;;;4.90;60.20;;;;;;5016734;28;19913;-83
2023/03/11 10:52:58;;;;;;;;;;;4.80;62.10;;;;;;5019992;28;20367;-82
2023/03/11 10:55:23;;;;;;;;;;;4.90;60.90;;;;;;5013721;28;19944;-83
2023/03/11 10:57:49;;;;;;;;;;;4.50;62.10;;;;;;5012508;28;20394;-84
2023/03/11 11:00:27;;;;;;;;;;;4.40;60.50;;;;;;5012862;28;19928;-82
2023/03/11 11:03:00;;;;;;;;;;;4.40;57.80;;;;;;5015955;28;19913;-81
2023/03/11 11:05:28;;;;;;;;;;;4.30;57.20;;;;;;5015616;28;19949;-82
2023/03/11 11:08:05;;;;;;;;;;;4.00;59.30;;;;;;5022286;28;19925;-83
2023/03/11 11:10:31;;;;;;;;;;;4.10;59.20;;;;;;5024733;28;19913;-82
2023/03/11 11:12:58;;;;;;;;;;;4.00;60.30;;;;;;5014242;28;19917;-83
2023/03/11 11:15:34;;;;;;;;;;;4.00;61.20;;;;;;5001595;28;19924;-82
2023/03/11 11:18:01;;;;;;;;;;;4.10;60.40;;;;;;5011126;28;20063;-82
2023/03/11 11:20:28;;;;;;;;;;;4.10;64.50;;;;;;5014691;28;19957;-81
2023/03/11 11:22:55;;;;;;;;;;;4.40;57.70;;;;;;5010423;28;20415;-81
2023/03/11 11:25:25;;;;;;;;;;;4.60;57.10;;;;;;5006949;28;19964;-81
2023/03/11 11:27:58;;;;;;;;;;;4.60;59.90;;;;;;5014046;28;19917;-81
2023/03/11 11:30:23;;;;;;;;;;;4.70;60.20;;;;;;5004436;28;20298;-81
2023/03/11 11:32:52;;;;;;;;;;;4.70;57.50;;;;;;5011239;28;19924;-81
2023/03/11 11:35:19;;;;;;;;;;;4.80;57.90;;;;;;5012137;28;20324;-81
2023/03/11 11:37:51;;;;;;;;;;;4.90;59.60;;;;;;5017988;28;19918;-81
2023/03/11 11:40:22;;;;;;;;;;;5.10;58.60;;;;;;5009246;28;19918;-79
2023/03/11 11:42:50;;;;;;;;;;;5.20;56.10;;;;;;5021091;28;20010;-80
2023/03/11 11:45:25;;;;;;;;;;;5.10;57.80;;;;;;5008103;28;19926;-80
2023/03/11 11:51:28;;;;;;;;;;;4.90;58.20;;;;;;4978829;28;20422;-82
2023/03/11 11:53:57;;;;;;;;;;;4.70;57.20;;;;;;4991582;28;20418;-83
2023/03/11 11:56:24;;;;;;;;;;;4.80;59.70;;;;;;5044864;23;19930;-82
2023/03/11 11:58:49;;;;;;;;;;;4.80;60.90;;;;;;4962604;28;19930;-82
2023/03/11 12:01:20;;;;;;;;;;;5.00;59.50;;;;;;4974186;28;19933;-83
2023/03/11 12:03:48;;;;;;;;;;;5.00;59.30;;;;;;4981876;28;20385;-83
2023/03/11 12:06:14;;;;;;;;;;;5.10;62.10;;;;;;4975194;28;19922;-82
2023/03/11 12:08:45;;;;;;;;;;;5.20;59.70;;;;;;4988486;28;20012;-82
2023/03/11 12:11:15;;;;;;;;;;;5.30;56.90;;;;;;4972014;28;20362;-82
2023/03/11 12:13:40;;;;;;;;;;;5.40;55.50;;;;;;4969095;28;19914;-81
2023/03/11 12:16:21;;;;;;;;;;;5.30;57.50;;;;;;4973153;28;20332;-83
2023/03/11 12:18:46;;;;;;;;;;;5.20;55.00;;;;;;4970421;28;19914;-82
2023/03/11 12:21:26;;;;;;;;;;;5.20;58.40;;;;;;4979529;28;19914;-82
2023/03/11 12:23:57;;;;;;;;;;;5.30;55.20;;;;;;4975547;28;19918;-82
2023/03/11 12:26:25;;;;;;;;;;;5.20;54.00;;;;;;4969357;28;19925;-83
2023/03/11 12:28:56;;;;;;;;;;;5.20;55.40;;;;;;4968177;28;19922;-83
2023/03/11 12:31:23;;;;;;;;;;;5.20;55.00;;;;;;4972092;28;19941;-83
2023/03/11 12:33:54;;;;;;;;;;;5.30;55.40;;;;;;4986326;28;20365;-83
2023/03/11 12:36:22;;;;;;;;;;;5.50;52.60;;;;;;4986576;28;20384;-83
2023/03/11 12:38:48;;;;;;;;;;;5.40;52.10;;;;;;4973904;28;19911;-82
2023/03/11 12:41:14;;;;;;;;;;;5.30;55.80;;;;;;4974951;28;19910;-83
2023/03/11 12:43:39;;;;;;;;;;;5.30;54.90;;;;;;4999237;28;19916;-82
2023/03/11 12:46:08;;;;;;;;;;;5.30;54.30;;;;;;4992288;28;19921;-82
2023/03/11 12:48:34;;;;;;;;;;;5.40;55.80;;;;;;4991981;28;19910;-82
2023/03/11 12:51:00;;;;;;;;;;;5.60;53.20;;;;;;4973136;28;19921;-83
2023/03/11 12:53:45;;;;;;;;;;;5.80;56.00;;;;;;4973187;28;20068;-82
2023/03/11 12:56:20;;;;;;;;;;;5.80;55.30;;;;;;4982906;28;20449;-84
2023/03/11 12:59:04;;;;;;;;;;;5.70;54.10;;;;;;4992486;28;20444;-82
2023/03/11 13:01:48;;;;;;;;;;;5.80;55.70;;;;;;4992860;28;19910;-82
2023/03/11 13:04:26;;;;;;;;;;;5.70;56.60;;;;;;5009913;28;19929;-82
2023/03/11 13:06:52;;;;;;;;;;;5.60;57.70;;;;;;4980312;28;19925;-83
2023/03/11 13:09:17;;;;;;;;;;;5.60;55.40;;;;;;4972683;28;19910;-82
2023/03/11 13:11:45;;;;;;;;;;;5.50;55.00;;;;;;4973860;28;20009;-82
2023/03/11 13:14:13;;;;;;;;;;;5.50;54.40;;;;;;4964700;28;19925;-80
2023/03/11 13:16:39;;;;;;;;;;;5.30;57.90;;;;;;4970601;28;19918;-81
2023/03/11 13:19:24;;;;;;;;;;;5.30;59.30;;;;;;4962577;28;21650;-82
2023/03/11 13:21:49;;;;;;;;;;;5.30;54.60;;;;;;4976650;28;19911;-83
2023/03/11 13:24:18;;;;;;;;;;;5.20;56.20;;;;;;4970396;28;19936;-82
2023/03/11 13:27:03;;;;;;;;;;;5.20;56.20;;;;;;4972883;28;19910;-82
2023/03/11 13:29:47;;;;;;;;;;;5.20;53.90;;;;;;4972684;28;19924;-83
2023/03/11 13:32:32;;;;;;;;;;;5.30;54.50;;;;;;4989369;28;19910;-82
2023/03/11 13:35:06;;;;;;;;;;;5.40;53.20;;;;;;4973164;28;19918;-83
2023/03/11 13:37:32;;;;;;;;;;;5.50;51.00;;;;;;4988174;28;19918;-86
2023/03/11 13:39:57;;;;;;;;;;;5.60;51.00;;;;;;4972499;28;20010;-85
2023/03/11 13:42:32;;;;;;;;;;;5.50;51.50;;;;;;4972081;28;19914;-83
2023/03/11 13:44:57;;;;;;;;;;;5.50;53.70;;;;;;4986059;28;20433;-85
2023/03/11 13:47:24;;;;;;;;;;;5.70;49.10;;;;;;4976001;28;19950;-85
2023/03/11 13:49:52;;;;;;;;;;;5.50;51.60;;;;;;4969501;28;20357;-85
2023/03/11 13:52:24;;;;;;;;;;;5.50;53.50;;;;;;4971533;28;19972;-84
2023/03/11 13:55:06;;;;;;;;;;;5.60;55.20;;;;;;4964582;28;19974;-81
2023/03/11 13:57:33;;;;;;;;;;;5.60;53.60;;;;;;4970231;28;19918;-83
2023/03/11 14:00:16;;;;;;;;;;;5.90;48.40;;;;;;4967624;28;19953;-82
2023/03/11 14:02:44;;;;;;;;;;;5.90;48.00;;;;;;4974270;28;19958;-83
2023/03/11 14:05:14;;;;;;;;;;;5.80;49.80;;;;;;4988784;28;19925;-84
2023/03/11 14:07:39;;;;;;;;;;;5.80;51.60;;;;;;4974878;28;20357;-86
2023/03/11 14:10:25;;;;;;;;;;;5.80;50.80;;;;;;4957192;28;19915;-82
2023/03/11 14:13:03;;;;;;;;;;;5.60;51.30;;;;;;4974797;28;19918;-82
2023/03/11 14:15:31;;;;;;;;;;;5.70;54.20;;;;;;4969219;28;19960;-82
2023/03/11 14:20:24;;;;;;;;;;;5.60;50.40;;;;;;4740459;23;19933;-83
2023/03/11 14:22:50;;;;;;;;;;;5.70;50.40;;;;;;5029944;28;19920;-83
2023/03/11 14:25:17;;;;;;;;;;;5.60;52.70;;;;;;5005542;28;20394;-84
2023/03/11 14:27:49;;;;;;;;;;;5.60;52.60;;;;;;5028951;28;19983;-82
2023/03/11 14:30:23;;;;;;;;;;;5.90;47.90;;;;;;5028783;28;19913;-83
2023/03/11 14:33:14;;;;;;;;;;;5.90;48.70;;;;;;5002415;28;19921;-84
2023/03/11 14:35:40;;;;;;;;;;;5.80;50.20;;;;;;5032697;28;19920;-84
2023/03/11 14:38:19;;;;;;;;;;;5.60;48.80;;;;;;5014736;28;20013;-82
2023/03/11 14:40:48;;;;;;;;;;;5.70;48.90;;;;;;5014583;28;19914;-84
2023/03/11 14:43:14;;;;;;;;;;;5.90;46.30;;;;;;5023117;28;19916;-85